sensor_id;sensor_type;location;lat;lon;timestamp;pressure;altitude;pressure_sealevel;temperature;humidity
37486;BME280;23341;50.296;18.960;2023-04-26T00:02:50;49936.28;;;-144.43;80.13
37486;BME280;23341;50.296;18.960;2023-04-26T00:07:56;49950.25;;;-144.43;79.94
37486;BME280;23341;50.296;18.960;2023-04-26T00:13:01;49930.28;;;-144.43;80.30
37486;BME280;23341;50.296;18.960;2023-04-26T00:18:05;49924.28;;;-144.43;78.72
37486;BME280;23341;50.296;18.960;2023-04-26T00:23:11;49924.28;;;-144.43;78.75
37486;BME280;23341;50.296;18.960;2023-04-26T00:28:15;49936.28;;;-144.43;78.72
37486;BME280;23341;50.296;18.960;2023-04-26T00:33:19;49952.25;;;-144.43;78.35
37486;BME280;23341;50.296;18.960;2023-04-26T00:38:25;49934.28;;;-144.43;77.51
37486;BME280;23341;50.296;18.960;2023-04-26T00:43:29;49944.28;;;-144.43;77.48
37486;BME280;23341;50.296;18.960;2023-04-26T00:48:33;49928.28;;;-144.43;76.34
37486;BME280;23341;50.296;18.960;2023-04-26T00:53:41;49862.31;;;-144.43;74.33
37486;BME280;23341;50.296;18.960;2023-04-26T00:58:46;49830.34;;;-144.43;73.92
37486;BME280;23341;50.296;18.960;2023-04-26T01:03:50;49796.34;;;-144.43;72.55
37486;BME280;23341;50.296;18.960;2023-04-26T01:08:58;49784.34;;;-144.43;73.41
37486;BME280;23341;50.296;18.960;2023-04-26T01:14:05;49764.38;;;-144.43;73.10
37486;BME280;23341;50.296;18.960;2023-04-26T01:19:10;49778.38;;;-144.43;73.09
37486;BME280;23341;50.296;18.960;2023-04-26T01:24:16;49706.41;;;-144.43;72.58
37486;BME280;23341;50.296;18.960;2023-04-26T01:29:21;49782.34;;;-144.43;73.10
37486;BME280;23341;50.296;18.960;2023-04-26T01:34:26;49710.41;;;-144.43;74.81
37486;BME280;23341;50.296;18.960;2023-04-26T01:39:32;49706.41;;;-144.43;74.51
37486;BME280;23341;50.296;18.960;2023-04-26T01:44:36;49718.41;;;-144.43;74.54
37486;BME280;23341;50.296;18.960;2023-04-26T01:49:41;49672.44;;;-144.43;74.97
37486;BME280;23341;50.296;18.960;2023-04-26T01:54:47;49656.44;;;-144.43;74.16
37486;BME280;23341;50.296;18.960;2023-04-26T01:59:51;49698.41;;;-144.43;74.13
37486;BME280;23341;50.296;18.960;2023-04-26T02:04:57;49696.41;;;-144.43;74.73
37486;BME280;23341;50.296;18.960;2023-04-26T02:10:03;49700.41;;;-144.43;74.88
37486;BME280;23341;50.296;18.960;2023-04-26T02:15:09;49690.41;;;-144.43;75.80
37486;BME280;23341;50.296;18.960;2023-04-26T02:20:13;49690.41;;;-144.43;76.50
37486;BME280;23341;50.296;18.960;2023-04-26T02:25:19;49662.44;;;-144.43;78.49
37486;BME280;23341;50.296;18.960;2023-04-26T02:30:24;49670.44;;;-144.43;79.93
37486;BME280;23341;50.296;18.960;2023-04-26T02:35:28;49670.44;;;-144.43;80.45
37486;BME280;23341;50.296;18.960;2023-04-26T02:40:34;49708.41;;;-144.43;82.08
37486;BME280;23341;50.296;18.960;2023-04-26T02:45:40;49698.41;;;-144.43;83.62
37486;BME280;23341;50.296;18.960;2023-04-26T02:50:48;49690.41;;;-144.43;83.40
37486;BME280;23341;50.296;18.960;2023-04-26T02:55:53;49706.41;;;-144.43;85.36
37486;BME280;23341;50.296;18.960;2023-04-26T03:00:58;49722.41;;;-144.43;85.69
37486;BME280;23341;50.296;18.960;2023-04-26T03:06:04;49758.38;;;-144.43;86.65
37486;BME280;23341;50.296;18.960;2023-04-26T03:11:09;49786.34;;;-144.43;87.85
37486;BME280;23341;50.296;18.960;2023-04-26T03:16:14;49802.34;;;-144.43;88.48
37486;BME280;23341;50.296;18.960;2023-04-26T03:21:19;49822.34;;;-144.43;90.46
37486;BME280;23341;50.296;18.960;2023-04-26T03:26:24;49860.31;;;-144.43;90.76
37486;BME280;23341;50.296;18.960;2023-04-26T03:31:29;49886.31;;;-144.43;92.13
37486;BME280;23341;50.296;18.960;2023-04-26T03:36:33;49882.31;;;-144.43;92.70
37486;BME280;23341;50.296;18.960;2023-04-26T03:41:41;49924.28;;;-144.43;93.52
37486;BME280;23341;50.296;18.960;2023-04-26T03:46:47;49944.28;;;-144.43;93.17
37486;BME280;23341;50.296;18.960;2023-04-26T03:51:51;49956.25;;;-144.43;92.68
37486;BME280;23341;50.296;18.960;2023-04-26T03:56:57;49946.28;;;-144.43;93.78
37486;BME280;23341;50.296;18.960;2023-04-26T04:02:02;49950.25;;;-144.43;92.18
37486;BME280;23341;50.296;18.960;2023-04-26T04:07:06;49934.28;;;-144.43;91.82
37486;BME280;23341;50.296;18.960;2023-04-26T04:12:12;49974.25;;;-144.43;90.59
37486;BME280;23341;50.296;18.960;2023-04-26T04:17:17;49934.28;;;-144.43;90.70
37486;BME280;23341;50.296;18.960;2023-04-26T04:22:22;49946.28;;;-144.43;91.68
37486;BME280;23341;50.296;18.960;2023-04-26T04:27:28;49918.28;;;-144.43;90.93
37486;BME280;23341;50.296;18.960;2023-04-26T04:32:34;49942.28;;;-144.43;89.84
37486;BME280;23341;50.296;18.960;2023-04-26T04:37:39;49928.28;;;-144.43;88.25
37486;BME280;23341;50.296;18.960;2023-04-26T04:42:45;49916.28;;;-144.43;87.11
37486;BME280;23341;50.296;18.960;2023-04-26T04:47:51;49910.28;;;-144.43;86.25
37486;BME280;23341;50.296;18.960;2023-04-26T04:52:58;49912.28;;;-144.43;83.41
37486;BME280;23341;50.296;18.960;2023-04-26T04:58:04;50020.22;;;-144.43;76.71
37486;BME280;23341;50.296;18.960;2023-04-26T05:03:09;49944.28;;;-144.43;73.50
37486;BME280;23341;50.296;18.960;2023-04-26T05:08:14;49982.25;;;-144.43;71.47
37486;BME280;23341;50.296;18.960;2023-04-26T05:13:20;49994.25;;;-144.43;69.05
37486;BME280;23341;50.296;18.960;2023-04-26T05:18:24;49958.25;;;-144.43;67.31
37486;BME280;23341;50.296;18.960;2023-04-26T05:23:29;49976.25;;;-144.43;69.64
37486;BME280;23341;50.296;18.960;2023-04-26T05:28:35;49906.28;;;-144.43;69.27
37486;BME280;23341;50.296;18.960;2023-04-26T05:34:14;49972.25;;;-144.43;67.19
37486;BME280;23341;50.296;18.960;2023-04-26T05:39:23;49972.25;;;-144.43;66.53
37486;BME280;23341;50.296;18.960;2023-04-26T05:44:29;49994.25;;;-144.43;64.75
37486;BME280;23341;50.296;18.960;2023-04-26T05:49:34;50060.22;;;-144.43;61.59
37486;BME280;23341;50.296;18.960;2023-04-26T05:54:39;50204.13;;;-144.43;54.10
37486;BME280;23341;50.296;18.960;2023-04-26T05:59:45;50300.09;;;-144.43;50.53
37486;BME280;23341;50.296;18.960;2023-04-26T06:04:51;50270.09;;;-144.43;47.54
37486;BME280;23341;50.296;18.960;2023-04-26T06:09:56;50402.06;;;-144.43;42.90
37486;BME280;23341;50.296;18.960;2023-04-26T06:15:02;50462.03;;;-144.43;42.76
37486;BME280;23341;50.296;18.960;2023-04-26T06:20:09;50342.06;;;-144.43;43.75
37486;BME280;23341;50.296;18.960;2023-04-26T06:25:13;50607.97;;;-144.43;39.24
37486;BME280;23341;50.296;18.960;2023-04-26T06:30:20;50649.97;;;-144.43;37.38
37486;BME280;23341;50.296;18.960;2023-04-26T06:35:25;50669.94;;;-144.43;36.50
37486;BME280;23341;50.296;18.960;2023-04-26T06:40:29;50452.03;;;-144.43;38.55
37486;BME280;23341;50.296;18.960;2023-04-26T06:45:35;50370.06;;;-144.43;39.60
37486;BME280;23341;50.296;18.960;2023-04-26T06:50:42;50340.06;;;-144.43;40.83
37486;BME280;23341;50.296;18.960;2023-04-26T06:55:46;49906.28;;;-144.43;48.39
37486;BME280;23341;50.296;18.960;2023-04-26T07:00:52;49918.28;;;-144.43;51.48
37486;BME280;23341;50.296;18.960;2023-04-26T07:05:56;50436.03;;;-144.43;41.90
37486;BME280;23341;50.296;18.960;2023-04-26T07:11:01;50296.09;;;-144.43;42.05
37486;BME280;23341;50.296;18.960;2023-04-26T07:16:07;49964.25;;;-144.43;48.54
37486;BME280;23341;50.296;18.960;2023-04-26T07:21:12;49908.28;;;-144.43;49.91
37486;BME280;23341;50.296;18.960;2023-04-26T07:26:16;50022.22;;;-144.43;48.71
37486;BME280;23341;50.296;18.960;2023-04-26T07:31:22;49896.28;;;-144.43;49.96
37486;BME280;23341;50.296;18.960;2023-04-26T07:36:27;49856.31;;;-144.43;51.10
37486;BME280;23341;50.296;18.960;2023-04-26T07:41:31;50300.09;;;-144.43;42.95
37486;BME280;23341;50.296;18.960;2023-04-26T07:46:37;50078.19;;;-144.43;44.87
37486;BME280;23341;50.296;18.960;2023-04-26T07:51:43;49834.34;;;-144.43;50.96
37486;BME280;23341;50.296;18.960;2023-04-26T07:56:47;49760.38;;;-144.43;52.60
37486;BME280;23341;50.296;18.960;2023-04-26T08:01:53;49888.31;;;-144.43;52.33
37486;BME280;23341;50.296;18.960;2023-04-26T08:06:58;49966.25;;;-144.43;48.65
37486;BME280;23341;50.296;18.960;2023-04-26T08:12:03;49992.25;;;-144.43;48.87
37486;BME280;23341;50.296;18.960;2023-04-26T08:17:09;50196.16;;;-144.43;43.99
37486;BME280;23341;50.296;18.960;2023-04-26T08:22:14;50242.13;;;-144.43;41.63
37486;BME280;23341;50.296;18.960;2023-04-26T08:27:18;50216.13;;;-144.43;40.23
37486;BME280;23341;50.296;18.960;2023-04-26T08:32:24;50360.06;;;-144.43;38.04
37486;BME280;23341;50.296;18.960;2023-04-26T08:37:29;50182.16;;;-144.43;40.84
37486;BME280;23341;50.296;18.960;2023-04-26T08:42:38;50060.22;;;-144.43;40.38
37486;BME280;23341;50.296;18.960;2023-04-26T08:47:47;50206.13;;;-144.43;37.86
37486;BME280;23341;50.296;18.960;2023-04-26T08:52:52;49980.25;;;-144.43;39.26
37486;BME280;23341;50.296;18.960;2023-04-26T08:57:56;49788.34;;;-144.43;44.58
37486;BME280;23341;50.296;18.960;2023-04-26T09:03:02;49800.34;;;-144.43;45.87
37486;BME280;23341;50.296;18.960;2023-04-26T09:08:07;49878.31;;;-144.43;42.58
37486;BME280;23341;50.296;18.960;2023-04-26T09:13:12;50014.22;;;-144.43;41.12
37486;BME280;23341;50.296;18.960;2023-04-26T09:18:20;49832.34;;;-144.43;43.75
37486;BME280;23341;50.296;18.960;2023-04-26T09:23:24;49846.31;;;-144.43;41.91
37486;BME280;23341;50.296;18.960;2023-04-26T09:28:29;49990.25;;;-144.43;39.83
37486;BME280;23341;50.296;18.960;2023-04-26T09:33:35;49800.34;;;-144.43;40.31
37486;BME280;23341;50.296;18.960;2023-04-26T09:38:41;49724.41;;;-144.43;41.69
37486;BME280;23341;50.296;18.960;2023-04-26T09:43:48;49804.34;;;-144.43;39.65
37486;BME280;23341;50.296;18.960;2023-04-26T09:49:01;49936.28;;;-144.43;40.68
37486;BME280;23341;50.296;18.960;2023-04-26T09:54:05;49980.25;;;-144.43;35.23
37486;BME280;23341;50.296;18.960;2023-04-26T09:59:09;49994.25;;;-144.43;37.26
37486;BME280;23341;50.296;18.960;2023-04-26T10:04:15;49970.25;;;-144.43;38.18
37486;BME280;23341;50.296;18.960;2023-04-26T10:09:20;49884.31;;;-144.43;38.80
37486;BME280;23341;50.296;18.960;2023-04-26T10:14:25;49770.38;;;-144.43;39.31
37486;BME280;23341;50.296;18.960;2023-04-26T10:19:31;49786.34;;;-144.43;39.88
37486;BME280;23341;50.296;18.960;2023-04-26T10:24:37;49970.25;;;-144.43;37.63
37486;BME280;23341;50.296;18.960;2023-04-26T10:30:05;49822.34;;;-144.43;39.19
37486;BME280;23341;50.296;18.960;2023-04-26T10:35:12;49712.41;;;-144.43;40.91
37486;BME280;23341;50.296;18.960;2023-04-26T10:40:23;49732.38;;;-144.43;39.52
37486;BME280;23341;50.296;18.960;2023-04-26T10:45:28;49774.38;;;-144.43;40.52
37486;BME280;23341;50.296;18.960;2023-04-26T10:51:09;49700.41;;;-144.43;46.34
37486;BME280;23341;50.296;18.960;2023-04-26T10:56:51;49718.41;;;-144.43;44.02
37486;BME280;23341;50.296;18.960;2023-04-26T11:01:59;49754.38;;;-144.43;42.38
37486;BME280;23341;50.296;18.960;2023-04-26T11:07:05;49704.41;;;-144.43;40.68
37486;BME280;23341;50.296;18.960;2023-04-26T11:12:10;49896.28;;;-144.43;38.06
37486;BME280;23341;50.296;18.960;2023-04-26T11:17:15;49882.31;;;-144.43;35.18
37486;BME280;23341;50.296;18.960;2023-04-26T11:22:22;49870.31;;;-144.43;36.95
37486;BME280;23341;50.296;18.960;2023-04-26T11:27:26;49878.31;;;-144.43;36.65
37486;BME280;23341;50.296;18.960;2023-04-26T11:32:32;49832.34;;;-144.43;38.39
37486;BME280;23341;50.296;18.960;2023-04-26T11:37:37;49734.38;;;-144.43;39.94
37486;BME280;23341;50.296;18.960;2023-04-26T11:42:43;49666.44;;;-144.43;44.03
37486;BME280;23341;50.296;18.960;2023-04-26T11:47:48;49758.38;;;-144.43;42.11
37486;BME280;23341;50.296;18.960;2023-04-26T11:52:55;49844.31;;;-144.43;39.31
37486;BME280;23341;50.296;18.960;2023-04-26T11:58:00;49934.28;;;-144.43;37.11
37486;BME280;23341;50.296;18.960;2023-04-26T12:03:06;49938.28;;;-144.43;36.72
37486;BME280;23341;50.296;18.960;2023-04-26T12:08:14;50064.22;;;-144.43;33.37
37486;BME280;23341;50.296;18.960;2023-04-26T12:13:20;50060.22;;;-144.43;32.55
37486;BME280;23341;50.296;18.960;2023-04-26T12:18:29;50014.22;;;-144.43;32.89
37486;BME280;23341;50.296;18.960;2023-04-26T12:23:39;50046.22;;;-144.43;33.21
37486;BME280;23341;50.296;18.960;2023-04-26T12:28:43;50010.22;;;-144.43;33.91
37486;BME280;23341;50.296;18.960;2023-04-26T12:33:48;50062.22;;;-144.43;36.57
37486;BME280;23341;50.296;18.960;2023-04-26T12:38:54;49982.25;;;-144.43;39.05
37486;BME280;23341;50.296;18.960;2023-04-26T12:43:59;49992.25;;;-144.43;37.95
37486;BME280;23341;50.296;18.960;2023-04-26T12:49:04;50094.19;;;-144.43;38.38
37486;BME280;23341;50.296;18.960;2023-04-26T12:54:10;50054.22;;;-144.43;35.04
37486;BME280;23341;50.296;18.960;2023-04-26T12:59:15;50090.19;;;-144.43;35.05
37486;BME280;23341;50.296;18.960;2023-04-26T13:04:19;49976.25;;;-144.43;37.31
37486;BME280;23341;50.296;18.960;2023-04-26T13:09:25;49810.34;;;-144.43;38.50
37486;BME280;23341;50.296;18.960;2023-04-26T13:14:30;49730.38;;;-144.43;37.81
37486;BME280;23341;50.296;18.960;2023-04-26T13:19:35;49740.38;;;-144.43;40.35
37486;BME280;23341;50.296;18.960;2023-04-26T13:24:42;49874.31;;;-144.43;40.89
37486;BME280;23341;50.296;18.960;2023-04-26T13:29:46;50188.16;;;-144.43;35.96
37486;BME280;23341;50.296;18.960;2023-04-26T13:34:51;50667.94;;;-144.43;31.91
37486;BME280;23341;50.296;18.960;2023-04-26T13:39:57;50124.19;;;-144.43;32.69
37486;BME280;23341;50.296;18.960;2023-04-26T13:45:03;50014.22;;;-144.43;33.54
37486;BME280;23341;50.296;18.960;2023-04-26T13:50:11;49790.34;;;-144.43;41.40
37486;BME280;23341;50.296;18.960;2023-04-26T13:55:17;49770.38;;;-144.43;44.91
37486;BME280;23341;50.296;18.960;2023-04-26T14:00:22;49814.34;;;-144.43;45.89
37486;BME280;23341;50.296;18.960;2023-04-26T14:05:26;50098.19;;;-144.43;39.65
37486;BME280;23341;50.296;18.960;2023-04-26T14:10:32;50308.09;;;-144.43;36.33
37486;BME280;23341;50.296;18.960;2023-04-26T14:15:36;50512.00;;;-144.43;31.52
37486;BME280;23341;50.296;18.960;2023-04-26T14:20:41;50394.06;;;-144.43;32.02
37486;BME280;23341;50.296;18.960;2023-04-26T14:25:50;49976.25;;;-144.43;35.60
37486;BME280;23341;50.296;18.960;2023-04-26T14:30:54;49794.34;;;-144.43;38.77
37486;BME280;23341;50.296;18.960;2023-04-26T14:35:59;49858.31;;;-144.43;39.44
37486;BME280;23341;50.296;18.960;2023-04-26T14:41:04;50302.09;;;-144.43;33.06
37486;BME280;23341;50.296;18.960;2023-04-26T14:46:09;50318.09;;;-144.43;32.49
37486;BME280;23341;50.296;18.960;2023-04-26T14:51:13;50056.22;;;-144.43;35.14
37486;BME280;23341;50.296;18.960;2023-04-26T14:56:19;49940.28;;;-144.43;35.31
37486;BME280;23341;50.296;18.960;2023-04-26T15:01:23;49982.25;;;-144.43;33.19
37486;BME280;23341;50.296;18.960;2023-04-26T15:06:28;50070.19;;;-144.43;32.51
37486;BME280;23341;50.296;18.960;2023-04-26T15:11:36;50158.16;;;-144.43;31.78
37486;BME280;23341;50.296;18.960;2023-04-26T15:16:40;50128.19;;;-144.43;30.32
37486;BME280;23341;50.296;18.960;2023-04-26T15:21:45;50032.22;;;-144.43;32.54
37486;BME280;23341;50.296;18.960;2023-04-26T15:26:50;49896.28;;;-144.43;33.57
37486;BME280;23341;50.296;18.960;2023-04-26T15:31:55;49970.25;;;-144.43;33.80
37486;BME280;23341;50.296;18.960;2023-04-26T15:36:59;49940.28;;;-144.43;34.46
37486;BME280;23341;50.296;18.960;2023-04-26T15:42:05;49854.31;;;-144.43;35.36
37486;BME280;23341;50.296;18.960;2023-04-26T15:47:09;49772.38;;;-144.43;35.76
37486;BME280;23341;50.296;18.960;2023-04-26T15:52:14;49714.41;;;-144.43;36.99
37486;BME280;23341;50.296;18.960;2023-04-26T15:57:20;49744.38;;;-144.43;37.70
37486;BME280;23341;50.296;18.960;2023-04-26T16:02:25;49732.38;;;-144.43;38.88
37486;BME280;23341;50.296;18.960;2023-04-26T16:07:30;49696.41;;;-144.43;39.19
37486;BME280;23341;50.296;18.960;2023-04-26T16:12:36;49650.44;;;-144.43;43.99
37486;BME280;23341;50.296;18.960;2023-04-26T16:17:42;49616.47;;;-144.43;47.64
37486;BME280;23341;50.296;18.960;2023-04-26T16:22:46;49634.44;;;-144.43;49.91
37486;BME280;23341;50.296;18.960;2023-04-26T16:27:53;49588.47;;;-144.43;51.14
37486;BME280;23341;50.296;18.960;2023-04-26T16:32:57;49588.47;;;-144.43;50.18
37486;BME280;23341;50.296;18.960;2023-04-26T16:38:01;49610.47;;;-144.43;50.54
37486;BME280;23341;50.296;18.960;2023-04-26T16:43:07;49620.47;;;-144.43;49.30
37486;BME280;23341;50.296;18.960;2023-04-26T16:48:16;49586.47;;;-144.43;48.87
37486;BME280;23341;50.296;18.960;2023-04-26T16:53:20;49556.50;;;-144.43;47.43
37486;BME280;23341;50.296;18.960;2023-04-26T16:58:26;49558.50;;;-144.43;48.75
37486;BME280;23341;50.296;18.960;2023-04-26T17:03:30;49520.53;;;-144.43;50.97
37486;BME280;23341;50.296;18.960;2023-04-26T17:08:35;49508.53;;;-144.43;50.65
37486;BME280;23341;50.296;18.960;2023-04-26T17:13:41;49516.53;;;-144.43;49.85
37486;BME280;23341;50.296;18.960;2023-04-26T17:18:45;49578.47;;;-144.43;47.36
37486;BME280;23341;50.296;18.960;2023-04-26T17:23:49;49572.50;;;-144.43;48.29
37486;BME280;23341;50.296;18.960;2023-04-26T17:28:55;49550.50;;;-144.43;47.06
37486;BME280;23341;50.296;18.960;2023-04-26T17:33:59;49510.53;;;-144.43;46.55
37486;BME280;23341;50.296;18.960;2023-04-26T17:39:06;49486.53;;;-144.43;48.85
37486;BME280;23341;50.296;18.960;2023-04-26T17:44:12;49484.53;;;-144.43;48.22
37486;BME280;23341;50.296;18.960;2023-04-26T17:49:16;49496.53;;;-144.43;49.52
37486;BME280;23341;50.296;18.960;2023-04-26T17:54:23;49514.53;;;-144.43;49.41
37486;BME280;23341;50.296;18.960;2023-04-26T17:59:29;49482.53;;;-144.43;50.71
37486;BME280;23341;50.296;18.960;2023-04-26T18:04:33;49462.56;;;-144.43;51.61
37486;BME280;23341;50.296;18.960;2023-04-26T18:09:38;49482.53;;;-144.43;52.87
37486;BME280;23341;50.296;18.960;2023-04-26T18:14:43;49484.53;;;-144.43;52.34
37486;BME280;23341;50.296;18.960;2023-04-26T18:19:48;49426.59;;;-144.43;53.04
37486;BME280;23341;50.296;18.960;2023-04-26T18:24:52;49480.53;;;-144.43;53.70
37486;BME280;23341;50.296;18.960;2023-04-26T18:29:59;49502.53;;;-144.43;53.61
37486;BME280;23341;50.296;18.960;2023-04-26T18:35:04;49496.53;;;-144.43;54.32
37486;BME280;23341;50.296;18.960;2023-04-26T18:40:09;49474.56;;;-144.43;54.26
37486;BME280;23341;50.296;18.960;2023-04-26T18:45:15;49434.56;;;-144.43;55.38
37486;BME280;23341;50.296;18.960;2023-04-26T18:50:20;49478.53;;;-144.43;56.07
37486;BME280;23341;50.296;18.960;2023-04-26T18:55:24;49470.56;;;-144.43;55.94
37486;BME280;23341;50.296;18.960;2023-04-26T19:00:30;49474.56;;;-144.43;56.44
37486;BME280;23341;50.296;18.960;2023-04-26T19:05:35;49482.53;;;-144.43;56.76
37486;BME280;23341;50.296;18.960;2023-04-26T19:10:43;49466.56;;;-144.43;57.80
37486;BME280;23341;50.296;18.960;2023-04-26T19:15:49;49434.56;;;-144.43;57.74
37486;BME280;23341;50.296;18.960;2023-04-26T19:20:53;49462.56;;;-144.43;57.62
37486;BME280;23341;50.296;18.960;2023-04-26T19:26:02;49448.56;;;-144.43;57.89
37486;BME280;23341;50.296;18.960;2023-04-26T19:31:08;49456.56;;;-144.43;57.30
37486;BME280;23341;50.296;18.960;2023-04-26T19:36:12;49434.56;;;-144.43;57.70
37486;BME280;23341;50.296;18.960;2023-04-26T19:41:16;49456.56;;;-144.43;58.22
37486;BME280;23341;50.296;18.960;2023-04-26T19:46:22;49468.56;;;-144.43;58.41
37486;BME280;23341;50.296;18.960;2023-04-26T19:51:26;49438.56;;;-144.43;59.60
37486;BME280;23341;50.296;18.960;2023-04-26T19:56:31;49406.59;;;-144.43;60.09
37486;BME280;23341;50.296;18.960;2023-04-26T20:01:37;49444.56;;;-144.43;60.56
37486;BME280;23341;50.296;18.960;2023-04-26T20:06:41;49458.56;;;-144.43;59.83
37486;BME280;23341;50.296;18.960;2023-04-26T20:11:45;49428.59;;;-144.43;58.72
37486;BME280;23341;50.296;18.960;2023-04-26T20:16:53;49484.53;;;-144.43;58.76
37486;BME280;23341;50.296;18.960;2023-04-26T20:21:57;49454.56;;;-144.43;58.14
37486;BME280;23341;50.296;18.960;2023-04-26T20:27:01;49478.53;;;-144.43;59.59
37486;BME280;23341;50.296;18.960;2023-04-26T20:32:07;49464.56;;;-144.43;59.17
37486;BME280;23341;50.296;18.960;2023-04-26T20:37:12;49470.56;;;-144.43;58.65
37486;BME280;23341;50.296;18.960;2023-04-26T20:42:16;49436.56;;;-144.43;60.02
37486;BME280;23341;50.296;18.960;2023-04-26T20:47:22;49446.56;;;-144.43;61.10
37486;BME280;23341;50.296;18.960;2023-04-26T20:52:26;49426.59;;;-144.43;61.57
37486;BME280;23341;50.296;18.960;2023-04-26T20:57:31;49414.59;;;-144.43;61.96
37486;BME280;23341;50.296;18.960;2023-04-26T21:02:36;49424.59;;;-144.43;63.01
37486;BME280;23341;50.296;18.960;2023-04-26T21:07:41;49428.59;;;-144.43;63.42
37486;BME280;23341;50.296;18.960;2023-04-26T21:12:46;49430.56;;;-144.43;64.17
37486;BME280;23341;50.296;18.960;2023-04-26T21:17:51;49398.59;;;-144.43;65.25
37486;BME280;23341;50.296;18.960;2023-04-26T21:22:56;49406.59;;;-144.43;65.08
37486;BME280;23341;50.296;18.960;2023-04-26T21:28:00;49418.59;;;-144.43;65.60
37486;BME280;23341;50.296;18.960;2023-04-26T21:33:06;49420.59;;;-144.43;66.48
37486;BME280;23341;50.296;18.960;2023-04-26T21:38:11;49404.59;;;-144.43;67.00
37486;BME280;23341;50.296;18.960;2023-04-26T21:43:16;49436.56;;;-144.43;67.48
37486;BME280;23341;50.296;18.960;2023-04-26T21:48:23;49418.59;;;-144.43;67.58
37486;BME280;23341;50.296;18.960;2023-04-26T21:53:28;49434.56;;;-144.43;67.89
37486;BME280;23341;50.296;18.960;2023-04-26T21:58:32;49462.56;;;-144.43;67.94
37486;BME280;23341;50.296;18.960;2023-04-26T22:03:38;49408.59;;;-144.43;68.58
37486;BME280;23341;50.296;18.960;2023-04-26T22:08:43;49454.56;;;-144.43;67.38
37486;BME280;23341;50.296;18.960;2023-04-26T22:13:47;49442.56;;;-144.43;68.32
37486;BME280;23341;50.296;18.960;2023-04-26T22:18:53;49450.56;;;-144.43;68.33
37486;BME280;23341;50.296;18.960;2023-04-26T22:23:58;49418.59;;;-144.43;68.31
37486;BME280;23341;50.296;18.960;2023-04-26T22:29:03;49436.56;;;-144.43;67.84
37486;BME280;23341;50.296;18.960;2023-04-26T22:34:08;49466.56;;;-144.43;67.86
37486;BME280;23341;50.296;18.960;2023-04-26T22:39:13;49436.56;;;-144.43;67.71
37486;BME280;23341;50.296;18.960;2023-04-26T22:44:17;49444.56;;;-144.43;67.93
37486;BME280;23341;50.296;18.960;2023-04-26T22:49:24;49444.56;;;-144.43;67.35
37486;BME280;23341;50.296;18.960;2023-04-26T22:54:28;49480.53;;;-144.43;67.40
37486;BME280;23341;50.296;18.960;2023-04-26T22:59:33;49450.56;;;-144.43;67.30
37486;BME280;23341;50.296;18.960;2023-04-26T23:04:38;49490.53;;;-144.43;67.49
37486;BME280;23341;50.296;18.960;2023-04-26T23:09:43;49470.56;;;-144.43;67.92
37486;BME280;23341;50.296;18.960;2023-04-26T23:14:47;49446.56;;;-144.43;67.59
37486;BME280;23341;50.296;18.960;2023-04-26T23:19:54;49464.56;;;-144.43;67.82
37486;BME280;23341;50.296;18.960;2023-04-26T23:24:58;49490.53;;;-144.43;67.89
37486;BME280;23341;50.296;18.960;2023-04-26T23:30:03;49446.56;;;-144.43;68.36
37486;BME280;23341;50.296;18.960;2023-04-26T23:35:09;49446.56;;;-144.43;70.39
37486;BME280;23341;50.296;18.960;2023-04-26T23:40:14;49442.56;;;-144.43;71.49
37486;BME280;23341;50.296;18.960;2023-04-26T23:45:18;49452.56;;;-144.43;70.82
37486;BME280;23341;50.296;18.960;2023-04-26T23:50:24;49468.56;;;-144.43;72.16
37486;BME280;23341;50.296;18.960;2023-04-26T23:55:28;49438.56;;;-144.43;72.89
